Observation data for Tulia on 01/18/2019      Previous  Date  Next       Current Mesonet Observations  Soil Data  Daily Summary Page  Observations in Plain Language
KTIS 180600Z 21007KT 04/M03 A2999 RMK A01 T00431029  RH  060%=      5-min Rain = 0
KTIS 180605Z 21007KT 04/M03 A2999 RMK A01 T00421030  RH  060%=      5-min Rain = 0
KTIS 180610Z 21006KT 04/M03 A2999 RMK A01 T00411029  RH  061%=      5-min Rain = 0
KTIS 180615Z 22006KT 04/M03 A2999 RMK A01 T00401030  RH  061%=      5-min Rain = 0
KTIS 180620Z 22006KT 04/M03 A2998 RMK A01 T00401030  RH  061%=      5-min Rain = 0
KTIS 180625Z 22005KT 04/M03 A2998 RMK A01 T00391030  RH  061%=      5-min Rain = 0
KTIS 180630Z 23005KT 04/M03 A2998 RMK A01 T00411030  RH  061%=      5-min Rain = 0
KTIS 180635Z 23006KT 04/M03 A2998 RMK A01 T00381030  RH  061%=      5-min Rain = 0
KTIS 180640Z 22007KT 04/M03 A2998 RMK A01 T00421029  RH  060%=      5-min Rain = 0
KTIS 180645Z 21008KT 04/M03 A2997 RMK A01 T00441029  RH  060%=      5-min Rain = 0
KTIS 180650Z 22009KT 04/M03 A2997 RMK A01 T00411029  RH  061%=      5-min Rain = 0
KTIS 180655Z 23009KT 04/M03 A2997 RMK A01 T00401029  RH  061%=      5-min Rain = 0
KTIS 180700Z 24009KT 04/M03 A2997 RMK A01 T00391029  RH  062%=      5-min Rain = 0
KTIS 180705Z 24010KT 04/M03 A2997 RMK A01 T00391028  RH  062%=      5-min Rain = 0
KTIS 180710Z 24012KT 05/M03 A2996 RMK A01 T00451025  RH  061%=      5-min Rain = 0
KTIS 180715Z 24011KT 05/M03 A2996 RMK A01 T00451025  RH  061%=      5-min Rain = 0
KTIS 180720Z 24010KT 04/M03 A2996 RMK A01 T00441025  RH  061%=      5-min Rain = 0
KTIS 180725Z 23010KT 04/M03 A2996 RMK A01 T00401027  RH  062%=      5-min Rain = 0
KTIS 180730Z 22009KT 03/M03 A2995 RMK A01 T00341030  RH  063%=      5-min Rain = 0
KTIS 180735Z 22009KT 03/M03 A2995 RMK A01 T00271032  RH  066%=      5-min Rain = 0
KTIS 180740Z 21009KT 02/M03 A2995 RMK A01 T00221033  RH  067%=      5-min Rain = 0
KTIS 180745Z 21010KT 02/M03 A2994 RMK A01 T00221031  RH  068%=      5-min Rain = 0
KTIS 180750Z 20010KT 02/M03 A2994 RMK A01 T00231031  RH  068%=      5-min Rain = 0
KTIS 180755Z 20011KT 03/M03 A2994 RMK A01 T00251027  RH  069%=      5-min Rain = 0
KTIS 180800Z 21010KT 03/M03 A2994 RMK A01 T00291025  RH  068%=      5-min Rain = 0
KTIS 180805Z 21010KT 03/M02 A2994 RMK A01 T00331023  RH  067%=      5-min Rain = 0
KTIS 180810Z 20011KT 04/M02 A2993 RMK A01 T00371021  RH  066%=      5-min Rain = 0
KTIS 180815Z 20012KT 03/M02 A2992 RMK A01 T00331023  RH  067%=      5-min Rain = 0
KTIS 180820Z 20012KT 03/M02 A2992 RMK A01 T00301024  RH  068%=      5-min Rain = 0
KTIS 180825Z 20012KT 03/M02 A2992 RMK A01 T00301023  RH  068%=      5-min Rain = 0
KTIS 180830Z 21012KT 04/M02 A2992 RMK A01 T00351021  RH  067%=      5-min Rain = 0
KTIS 180835Z 21013KT 04/M02 A2992 RMK A01 T00401019  RH  066%=      5-min Rain = 0
KTIS 180840Z 21013KT 04/M02 A2992 RMK A01 T00421018  RH  065%=      5-min Rain = 0
KTIS 180845Z 22013KT 04/M02 A2991 RMK A01 T00431016  RH  066%=      5-min Rain = 0
KTIS 180850Z 21014KT 05/M02 A2991 RMK A01 T00461015  RH  065%=      5-min Rain = 0
KTIS 180855Z 22012KT 05/M02 A2991 RMK A01 T00451015  RH  066%=      5-min Rain = 0
KTIS 180900Z 22013KT 05/M02 A299 RMK A01 T00451015  RH  066%=      5-min Rain = 0
KTIS 180905Z 22014KT 05/M02 A299 RMK A01 T00461015  RH  065%=      5-min Rain = 0
KTIS 180910Z 22013KT 05/M02 A299 RMK A01 T00461015  RH  065%=      5-min Rain = 0
KTIS 180915Z 22014KT 05/M02 A299 RMK A01 T00451015  RH  066%=      5-min Rain = 0
KTIS 180920Z 22014KT 05/M02 A299 RMK A01 T00461015  RH  065%=      5-min Rain = 0
KTIS 180925Z 22015KT 05/M01 A299 RMK A01 T00461014  RH  065%=      5-min Rain = 0
KTIS 180930Z 22014KT 05/M01 A299 RMK A01 T00481014  RH  065%=      5-min Rain = 0
KTIS 180935Z 22013G18KT 05/M02 A299 RMK A01 T00461015  RH  065%=      5-min Rain = 0
KTIS 180940Z 22013KT 05/M02 A2989 RMK A01 T00471015  RH  065%=      5-min Rain = 0
KTIS 180945Z 22013KT 05/M02 A2989 RMK A01 T00461016  RH  065%=      5-min Rain = 0
KTIS 180950Z 22013KT 05/M02 A2989 RMK A01 T00471016  RH  064%=      5-min Rain = 0
KTIS 180955Z 22013KT 05/M02 A2988 RMK A01 T00461016  RH  064%=      5-min Rain = 0
KTIS 181000Z 22013G18KT 05/M02 A2988 RMK A01 T00491017  RH  063%=      5-min Rain = 0
KTIS 181005Z 22012KT 05/M02 A2988 RMK A01 T00471018  RH  063%=      5-min Rain = 0
KTIS 181010Z 23011KT 05/M02 A2987 RMK A01 T00451019  RH  064%=      5-min Rain = 0
KTIS 181015Z 23011KT 04/M02 A2987 RMK A01 T00441019  RH  064%=      5-min Rain = 0
KTIS 181020Z 23012KT 05/M02 A2986 RMK A01 T00461019  RH  063%=      5-min Rain = 0
KTIS 181025Z 23012KT 05/M02 A2986 RMK A01 T00471019  RH  062%=      5-min Rain = 0
KTIS 181030Z 23012G17KT 05/M02 A2985 RMK A01 T00481020  RH  062%=      5-min Rain = 0
KTIS 181035Z 22013KT 05/M02 A2984 RMK A01 T00491020  RH  061%=      5-min Rain = 0
KTIS 181040Z 23014KT 05/M02 A2984 RMK A01 T00501021  RH  061%=      5-min Rain = 0
KTIS 181045Z 23014KT 05/M02 A2984 RMK A01 T00491021  RH  061%=      5-min Rain = 0
KTIS 181050Z 23015KT 05/M02 A2984 RMK A01 T00501021  RH  061%=      5-min Rain = 0
KTIS 181055Z 23015KT 05/M02 A2983 RMK A01 T00531020  RH  059%=      5-min Rain = 0
KTIS 181100Z 24016KT 06/M02 A2983 RMK A01 T00591020  RH  057%=      5-min Rain = 0
KTIS 181105Z 23016G21KT 06/M02 A2983 RMK A01 T00641020  RH  056%=      5-min Rain = 0
KTIS 181110Z 23015G21KT 07/M02 A2982 RMK A01 T00671020  RH  054%=      5-min Rain = 0
KTIS 181115Z 23016G21KT 07/M02 A2982 RMK A01 T00661021  RH  054%=      5-min Rain = 0
KTIS 181120Z 23017G22KT 07/M02 A2981 RMK A01 T00671021  RH  054%=      5-min Rain = 0
KTIS 181125Z 23017G22KT 07/M02 A2981 RMK A01 T00661021  RH  054%=      5-min Rain = 0
KTIS 181130Z 23016KT 07/M02 A298 RMK A01 T00661022  RH  054%=      5-min Rain = 0
KTIS 181135Z 23017G22KT 07/M02 A298 RMK A01 T00651022  RH  054%=      5-min Rain = 0
KTIS 181140Z 23017KT 07/M02 A298 RMK A01 T00651022  RH  054%=      5-min Rain = 0
KTIS 181145Z 23016KT 06/M02 A298 RMK A01 T00631022  RH  055%=      5-min Rain = 0
KTIS 181150Z 23016KT 06/M02 A2979 RMK A01 T00621022  RH  055%=      5-min Rain = 0
KTIS 181155Z 23016G21KT 06/M02 A2979 RMK A01 T00641022  RH  055%=      5-min Rain = 0
KTIS 181200Z 23015KT 06/M02 A2979 RMK A01 T00641022  RH  055%=      5-min Rain = 0
KTIS 181205Z 24015G20KT 06/M02 A2978 RMK A01 T00641021  RH  055%=      5-min Rain = 0
KTIS 181210Z 23015KT 06/M02 A2978 RMK A01 T00631021  RH  055%=      5-min Rain = 0
KTIS 181215Z 23015KT 07/M02 A2978 RMK A01 T00651021  RH  054%=      5-min Rain = 0
KTIS 181220Z 24013KT 06/M02 A2979 RMK A01 T00641020  RH  055%=      5-min Rain = 0
KTIS 181225Z 24015KT 07/M02 A2979 RMK A01 T00651020  RH  055%=      5-min Rain = 0
KTIS 181230Z 24016KT 07/M02 A2979 RMK A01 T00691021  RH  053%=      5-min Rain = 0
KTIS 181235Z 24016G21KT 07/M02 A2979 RMK A01 T00731021  RH  052%=      5-min Rain = 0
KTIS 181240Z 24017KT 08/M02 A2979 RMK A01 T00751021  RH  051%=      5-min Rain = 0
KTIS 181245Z 24015G21KT 08/M02 A2979 RMK A01 T00751020  RH  051%=      5-min Rain = 0
KTIS 181250Z 24015KT 07/M02 A2979 RMK A01 T00741021  RH  051%=      5-min Rain = 0
KTIS 181255Z 24015KT 08/M02 A2978 RMK A01 T00761021  RH  051%=      5-min Rain = 0
KTIS 181300Z 23015KT 08/M02 A2978 RMK A01 T00781021  RH  050%=      5-min Rain = 0
KTIS 181305Z 23015KT 08/M02 A2978 RMK A01 T00791021  RH  050%=      5-min Rain = 0
KTIS 181310Z 23015KT 08/M02 A2978 RMK A01 T00811021  RH  049%=      5-min Rain = 0
KTIS 181315Z 23016KT 08/M02 A2978 RMK A01 T00811020  RH  049%=      5-min Rain = 0
KTIS 181320Z 24016G21KT 08/M02 A2978 RMK A01 T00811020  RH  049%=      5-min Rain = 0
KTIS 181325Z 24016KT 08/M02 A2978 RMK A01 T00801020  RH  050%=      5-min Rain = 0
KTIS 181330Z 24015KT 08/M02 A2978 RMK A01 T00811019  RH  049%=      5-min Rain = 0
KTIS 181335Z 24016KT 08/M02 A2978 RMK A01 T00811019  RH  050%=      5-min Rain = 0
KTIS 181340Z 23016KT 08/M02 A2978 RMK A01 T00821018  RH  050%=      5-min Rain = 0
KTIS 181345Z 23016G21KT 08/M02 A2978 RMK A01 T00821017  RH  050%=      5-min Rain = 0
KTIS 181350Z 23016G22KT 08/M02 A2978 RMK A01 T00841017  RH  049%=      5-min Rain = 0
KTIS 181355Z 23015G20KT 09/M02 A2977 RMK A01 T00851017  RH  049%=      5-min Rain = 0
KTIS 181400Z 23014KT 09/M02 A2977 RMK A01 T00851016  RH  049%=      5-min Rain = 0
KTIS 181405Z 23015KT 08/M02 A2977 RMK A01 T00841016  RH  050%=      5-min Rain = 0
KTIS 181410Z 23015G20KT 08/M02 A2977 RMK A01 T00831016  RH  050%=      5-min Rain = 0
KTIS 181415Z 23016KT 08/M02 A2977 RMK A01 T00821017  RH  050%=      5-min Rain = 0
KTIS 181420Z 23015KT 08/M02 A2977 RMK A01 T00811017  RH  050%=      5-min Rain = 0
KTIS 181425Z 23016KT 08/M02 A2977 RMK A01 T00801017  RH  051%=      5-min Rain = 0
KTIS 181430Z 24014KT 08/M02 A2977 RMK A01 T00791016  RH  051%=      5-min Rain = 0
KTIS 181435Z 23015KT 08/M02 A2977 RMK A01 T00781016  RH  052%=      5-min Rain = 0
KTIS 181440Z 23015KT 08/M02 A2978 RMK A01 T00761015  RH  053%=      5-min Rain = 0
KTIS 181445Z 23015KT 08/M01 A2978 RMK A01 T00781014  RH  053%=      5-min Rain = 0
KTIS 181450Z 24016G22KT 08/M01 A2978 RMK A01 T00821014  RH  051%=      5-min Rain = 0
KTIS 181455Z 24018KT 09/M01 A2978 RMK A01 T00891013  RH  049%=      5-min Rain = 0
KTIS 181500Z 25017G23KT 10/M01 A2978 RMK A01 T00951013  RH  047%=      5-min Rain = 0
KTIS 181505Z 25016G21KT 10/M01 A2978 RMK A01 T00971014  RH  047%=      5-min Rain = 0
KTIS 181510Z 26017G24KT 10/M01 A2977 RMK A01 T00991014  RH  046%=      5-min Rain = 0
KTIS 181515Z 26019G25KT 10/M02 A2978 RMK A01 T01011015  RH  045%=      5-min Rain = 0
KTIS 181520Z 25018G23KT 10/M02 A2977 RMK A01 T01001015  RH  045%=      5-min Rain = 0
KTIS 181525Z 25019G25KT 11/M02 A2977 RMK A01 T01051015  RH  044%=      5-min Rain = 0
KTIS 181530Z 25020G25KT 11/M01 A2977 RMK A01 T01071014  RH  043%=      5-min Rain = 0
KTIS 181535Z 26020KT 11/M01 A2977 RMK A01 T01051014  RH  044%=      5-min Rain = 0
KTIS 181540Z 26018G25KT 11/M01 A2977 RMK A01 T01071014  RH  043%=      5-min Rain = 0
KTIS 181545Z 26019G26KT 11/M01 A2976 RMK A01 T01111014  RH  042%=      5-min Rain = 0
KTIS 181550Z 26020G25KT 12/M01 A2976 RMK A01 T01171013  RH  041%=      5-min Rain = 0
KTIS 181555Z 26023G31KT 12/M01 A2976 RMK A01 T01241011  RH  040%=      5-min Rain = 0
KTIS 181600Z 26024G32KT 13/M01 A2976 RMK A01 T01331006  RH  039%=      5-min Rain = 0
KTIS 181605Z 26025G37KT 13/M00 A2975 RMK A01 T01341003  RH  039%=      5-min Rain = 0
KTIS 181610Z 26024G32KT 14/00 A2975 RMK A01 T01360001  RH  040%=      5-min Rain = 0
KTIS 181615Z 26025G32KT 14/00 A2976 RMK A01 T01370002  RH  040%=      5-min Rain = 0
KTIS 181620Z 25025G30KT 14/00 A2975 RMK A01 T01380003  RH  040%=      5-min Rain = 0
KTIS 181625Z 25024G33KT 14/01 A2975 RMK A01 T01380005  RH  040%=      5-min Rain = 0
KTIS 181630Z 26023G32KT 15/01 A2975 RMK A01 T01450008  RH  040%=      5-min Rain = 0
KTIS 181635Z 25025G36KT 15/01 A2975 RMK A01 T01480010  RH  040%=      5-min Rain = 0
KTIS 181640Z 26023G32KT 15/01 A2975 RMK A01 T01530011  RH  039%=      5-min Rain = 0
KTIS 181645Z 26027G37KT 15/01 A2975 RMK A01 T01520009  RH  038%=      5-min Rain = 0
KTIS 181650Z 26023G32KT 16/01 A2975 RMK A01 T01550010  RH  038%=      5-min Rain = 0
KTIS 181655Z 25025G32KT 16/01 A2974 RMK A01 T01570011  RH  038%=      5-min Rain = 0
KTIS 181700Z 25027G36KT 16/01 A2973 RMK A01 T01580012  RH  038%=      5-min Rain = 0
KTIS 181705Z 25027G35KT 16/01 A2973 RMK A01 T01570011  RH  038%=      5-min Rain = 0
KTIS 181710Z 25027G36KT 16/01 A2973 RMK A01 T01590011  RH  037%=      5-min Rain = 0
KTIS 181715Z 25026G37KT 16/01 A2973 RMK A01 T01610011  RH  037%=      5-min Rain = 0
KTIS 181720Z 25027G33KT 16/01 A2973 RMK A01 T01610011  RH  036%=      5-min Rain = 0
KTIS 181725Z 25026G35KT 16/01 A2972 RMK A01 T01630010  RH  036%=      5-min Rain = 0
KTIS 181730Z 25028G37KT 16/01 A2972 RMK A01 T01620009  RH  036%=      5-min Rain = 0
KTIS 181735Z 25026G38KT 16/01 A2972 RMK A01 T01640010  RH  036%=      5-min Rain = 0
KTIS 181740Z 25027G35KT 16/01 A2972 RMK A01 T01630008  RH  035%=      5-min Rain = 0
KTIS 181745Z 25027G34KT 16/01 A2972 RMK A01 T01630007  RH  035%=      5-min Rain = 0
KTIS 181750Z 25024G32KT 17/01 A2972 RMK A01 T01660007  RH  034%=      5-min Rain = 0
KTIS 181755Z 24027G35KT 17/01 A2971 RMK A01 T01660005  RH  034%=      5-min Rain = 0
KTIS 181800Z 25027G35KT 17/01 A297 RMK A01 T01690006  RH  034%=      5-min Rain = 0
KTIS 181805Z 26026G35KT 17/01 A297 RMK A01 T01730009  RH  033%=      5-min Rain = 0
KTIS 181810Z 25027G34KT 17/01 A2969 RMK A01 T01730008  RH  033%=      5-min Rain = 0
KTIS 181815Z 25028G36KT 18/01 A2969 RMK A01 T01750007  RH  033%=      5-min Rain = 0
KTIS 181820Z 25028G36KT 18/01 A2968 RMK A01 T01750006  RH  032%=      5-min Rain = 0
KTIS 181825Z 26028G38KT 18/01 A2968 RMK A01 T01760006  RH  032%=      5-min Rain = 0
KTIS 181830Z 26026G34KT 18/01 A2967 RMK A01 T01780005  RH  032%=      5-min Rain = 0
KTIS 181835Z 26027G35KT 18/00 A2967 RMK A01 T01790004  RH  031%=      5-min Rain = 0
KTIS 181840Z 26026G37KT 18/00 A2966 RMK A01 T01800002  RH  030%=      5-min Rain = 0
KTIS 181845Z 27027G35KT 18/M01 A2966 RMK A01 T01811007  RH  028%=      5-min Rain = 0
KTIS 181850Z 26027G35KT 18/M00 A2966 RMK A01 T01811003  RH  029%=      5-min Rain = 0
KTIS 181855Z 26028G38KT 18/M00 A2966 RMK A01 T01791003  RH  029%=      5-min Rain = 0
KTIS 181900Z 26030G36KT 18/00 A2965 RMK A01 T01800001  RH  030%=      5-min Rain = 0
KTIS 181905Z 25029G37KT 18/00 A2965 RMK A01 T01800004  RH  031%=      5-min Rain = 0
KTIS 181910Z 25029G36KT 18/01 A2964 RMK A01 T01790005  RH  031%=      5-min Rain = 0
KTIS 181915Z 26027G37KT 18/00 A2964 RMK A01 T01790004  RH  031%=      5-min Rain = 0
KTIS 181920Z 26028G36KT 18/00 A2964 RMK A01 T01780002  RH  031%=      5-min Rain = 0
KTIS 181925Z 27028G38KT 18/M00 A2963 RMK A01 T01781003  RH  030%=      5-min Rain = 0
KTIS 181930Z 26028G35KT 18/M01 A2963 RMK A01 T01801009  RH  028%=      5-min Rain = 0
KTIS 181935Z 26028G38KT 18/M02 A2963 RMK A01 T01831015  RH  026%=      5-min Rain = 0
KTIS 181940Z 26028G36KT 18/M01 A2963 RMK A01 T01841012  RH  027%=      5-min Rain = 0
KTIS 181945Z 27028G34KT 18/M02 A2963 RMK A01 T01831015  RH  026%=      5-min Rain = 0
KTIS 181950Z 27027G34KT 18/M01 A2963 RMK A01 T01831014  RH  027%=      5-min Rain = 0
KTIS 181955Z 26024G33KT 18/M01 A2962 RMK A01 T01821011  RH  027%=      5-min Rain = 0
KTIS 182000Z 26023G33KT 19/M01 A2962 RMK A01 T01851009  RH  027%=      5-min Rain = 0
KTIS 182005Z 26025G31KT 18/M01 A2962 RMK A01 T01811008  RH  028%=      5-min Rain = 0
KTIS 182010Z 26023G31KT 18/M01 A2962 RMK A01 T01781012  RH  028%=      5-min Rain = 0
KTIS 182015Z 26023G30KT 18/M01 A2962 RMK A01 T01791008  RH  028%=      5-min Rain = 0
KTIS 182020Z 26024G35KT 18/M01 A2962 RMK A01 T01841006  RH  028%=      5-min Rain = 0
KTIS 182025Z 26025G34KT 19/M00 A2961 RMK A01 T01861002  RH  028%=      5-min Rain = 0
KTIS 182030Z 26026G32KT 19/M01 A2961 RMK A01 T01851005  RH  028%=      5-min Rain = 0
KTIS 182035Z 25023G30KT 18/M01 A2961 RMK A01 T01831009  RH  028%=      5-min Rain = 0
KTIS 182040Z 26022G30KT 19/M01 A2961 RMK A01 T01871010  RH  027%=      5-min Rain = 0
KTIS 182045Z 26022G28KT 19/M02 A2961 RMK A01 T01901015  RH  025%=      5-min Rain = 0
KTIS 182050Z 27020G27KT 19/M02 A2961 RMK A01 T01921019  RH  024%=      5-min Rain = 0
KTIS 182055Z 27023G31KT 18/M03 A296 RMK A01 T01821028  RH  024%=      5-min Rain = 0
KTIS 182100Z 26022G29KT 18/M03 A2961 RMK A01 T01781025  RH  025%=      5-min Rain = 0
KTIS 182105Z 26022G28KT 18/M02 A296 RMK A01 T01801020  RH  026%=      5-min Rain = 0
KTIS 182110Z 26021G27KT 18/M02 A296 RMK A01 T01821022  RH  025%=      5-min Rain = 0
KTIS 182115Z 25023G30KT 18/M03 A296 RMK A01 T01821028  RH  024%=      5-min Rain = 0
KTIS 182120Z 26022G30KT 19/M03 A296 RMK A01 T01881030  RH  023%=      5-min Rain = 0
KTIS 182125Z 25023G31KT 19/M02 A296 RMK A01 T01911023  RH  024%=      5-min Rain = 0
KTIS 182130Z 25023G28KT 18/M03 A296 RMK A01 T01841025  RH  024%=      5-min Rain = 0
KTIS 182135Z 26024G30KT 18/M03 A2961 RMK A01 T01841031  RH  023%=      5-min Rain = 0
KTIS 182140Z 25022G32KT 18/M04 A2961 RMK A01 T01781035  RH  023%=      5-min Rain = 0
KTIS 182145Z 25022G29KT 18/M02 A2961 RMK A01 T01751021  RH  026%=      5-min Rain = 0
KTIS 182150Z 24024G32KT 18/M01 A2961 RMK A01 T01751008  RH  029%=      5-min Rain = 0
KTIS 182155Z 25024G30KT 17/M01 A2961 RMK A01 T01721010  RH  029%=      5-min Rain = 0
KTIS 182200Z 25022G29KT 17/M02 A2962 RMK A01 T01681016  RH  029%=      5-min Rain = 0
KTIS 182205Z 25020G26KT 17/M03 A2962 RMK A01 T01661026  RH  027%=      5-min Rain = 0
KTIS 182210Z 25020G26KT 17/M04 A2962 RMK A01 T01671035  RH  025%=      5-min Rain = 0
KTIS 182215Z 25017G22KT 17/M04 A2962 RMK A01 T01671036  RH  025%=      5-min Rain = 0
KTIS 182220Z 26021G31KT 17/M04 A2962 RMK A01 T01671038  RH  025%=      5-min Rain = 0
KTIS 182225Z 26024G30KT 16/M04 A2963 RMK A01 T01641040  RH  024%=      5-min Rain = 0
KTIS 182230Z 26022KT 16/M05 A2963 RMK A01 T01611046  RH  024%=      5-min Rain = 0
KTIS 182235Z 27021G27KT 16/M05 A2963 RMK A01 T01591052  RH  023%=      5-min Rain = 0
KTIS 182240Z 27019G24KT 16/M06 A2963 RMK A01 T01581056  RH  022%=      5-min Rain = 0
KTIS 182245Z 27018G26KT 16/M06 A2963 RMK A01 T01571058  RH  022%=      5-min Rain = 0
KTIS 182250Z 27019G24KT 16/M06 A2964 RMK A01 T01561057  RH  023%=      5-min Rain = 0
KTIS 182255Z 26021G26KT 15/M06 A2964 RMK A01 T01541055  RH  023%=      5-min Rain = 0
KTIS 182300Z 26022G31KT 15/M05 A2964 RMK A01 T01521053  RH  024%=      5-min Rain = 0
KTIS 182305Z 26019G24KT 15/M05 A2964 RMK A01 T01501053  RH  024%=      5-min Rain = 0
KTIS 182310Z 26017G23KT 15/M05 A2964 RMK A01 T01491054  RH  024%=      5-min Rain = 0
KTIS 182315Z 26016G22KT 15/M05 A2964 RMK A01 T01481053  RH  025%=      5-min Rain = 0
KTIS 182320Z 26020G25KT 15/M06 A2963 RMK A01 T01501057  RH  024%=      5-min Rain = 0
KTIS 182325Z 26017G23KT 15/M06 A2963 RMK A01 T01521058  RH  023%=      5-min Rain = 0
KTIS 182330Z 26016KT 15/M06 A2962 RMK A01 T01521057  RH  023%=      5-min Rain = 0
KTIS 182335Z 26014G20KT 15/M06 A2963 RMK A01 T01511056  RH  024%=      5-min Rain = 0
KTIS 182340Z 27016G22KT 15/M05 A2963 RMK A01 T01491053  RH  024%=      5-min Rain = 0
KTIS 182345Z 27018G24KT 15/M05 A2963 RMK A01 T01461051  RH  025%=      5-min Rain = 0
KTIS 182350Z 27016KT 14/M05 A2963 RMK A01 T01431052  RH  026%=      5-min Rain = 0
KTIS 182355Z 28016G33KT 14/M05 A2963 RMK A01 T01381051  RH  027%=      5-min Rain = 0
KTIS 190000Z 35034G50KT 10/M02 A2966 RMK A01 T01001017  RH  045%=      5-min Rain = 0
KTIS 190005Z 35030G39KT 08/M01 A2968 RMK A01 T00751013  RH  054%=      5-min Rain = 0
KTIS 190010Z 35026G31KT 07/M01 A2969 RMK A01 T00691013  RH  057%=      5-min Rain = 0
KTIS 190015Z 35028G38KT 06/M01 A2971 RMK A01 T00641010  RH  060%=      5-min Rain = 0
KTIS 190020Z 34029G37KT 06/M01 A2972 RMK A01 T00561009  RH  063%=      5-min Rain = 0
KTIS 190025Z 35030G37KT 05/M01 A2972 RMK A01 T00541009  RH  065%=      5-min Rain = 0
KTIS 190030Z 36030G38KT 05/M01 A2973 RMK A01 T00521009  RH  066%=      5-min Rain = 0
KTIS 190035Z 36029G37KT 05/M01 A2973 RMK A01 T00491010  RH  066%=      5-min Rain = 0
KTIS 190040Z 35029G36KT 05/M01 A2974 RMK A01 T00461010  RH  067%=      5-min Rain = 0
KTIS 190045Z 35027G34KT 04/M01 A2975 RMK A01 T00441012  RH  068%=      5-min Rain = 0
KTIS 190050Z 35027G33KT 04/M01 A2976 RMK A01 T00411012  RH  069%=      5-min Rain = 0
KTIS 190055Z 35027G34KT 04/M01 A2976 RMK A01 T00381013  RH  070%=      5-min Rain = 0
KTIS 190100Z 35026G33KT 04/M01 A2977 RMK A01 T00371013  RH  070%=      5-min Rain = 0
KTIS 190105Z 35024G30KT 04/M01 A2978 RMK A01 T00391012  RH  070%=      5-min Rain = 0
KTIS 190110Z 35030G38KT 04/M01 A2979 RMK A01 T00411012  RH  069%=      5-min Rain = 0
KTIS 190115Z 34030G38KT 04/M01 A2979 RMK A01 T00411014  RH  068%=      5-min Rain = 0
KTIS 190120Z 35029G38KT 04/M01 A298 RMK A01 T00391014  RH  069%=      5-min Rain = 0
KTIS 190125Z 35027G34KT 04/M01 A298 RMK A01 T00381013  RH  070%=      5-min Rain = 0
KTIS 190130Z 34027G34KT 04/M01 A2981 RMK A01 T00381013  RH  070%=      5-min Rain = 0
KTIS 190135Z 35027G33KT 04/M01 A2982 RMK A01 T00361013  RH  071%=      5-min Rain = 0
KTIS 190140Z 35032G40KT 03/M02 A2982 RMK A01 T00331015  RH  071%=      5-min Rain = 0
KTIS 190145Z 35033G41KT 03/M02 A2982 RMK A01 T00291019  RH  071%=      5-min Rain = 0
KTIS 190150Z 35031G38KT 03/M02 A2983 RMK A01 T00261022  RH  071%=      5-min Rain = 0
KTIS 190155Z 35031G41KT 03/M02 A2983 RMK A01 T00251022  RH  072%=      5-min Rain = 0
KTIS 190200Z 35029G39KT 02/M02 A2984 RMK A01 T00231023  RH  072%=      5-min Rain = 0
KTIS 190205Z 35031G40KT 02/M02 A2984 RMK A01 T00221024  RH  072%=      5-min Rain = 0
KTIS 190210Z 35029G35KT 02/M03 A2985 RMK A01 T00221025  RH  072%=      5-min Rain = 0
KTIS 190215Z 35033G40KT 02/M02 A2985 RMK A01 T00211024  RH  073%=      5-min Rain = 0
KTIS 190220Z 34030G36KT 02/M02 A2985 RMK A01 T00211023  RH  073%=      5-min Rain = 0
KTIS 190225Z 34032G41KT 02/M03 A2986 RMK A01 T00211026  RH  071%=      5-min Rain = 0
KTIS 190230Z 35037G45KT 02/M03 A2986 RMK A01 T00211032  RH  068%=      5-min Rain = 0
KTIS 190235Z 35037G45KT 02/M03 A2986 RMK A01 T00191033  RH  069%=      5-min Rain = 0
KTIS 190240Z 35034G42KT 02/M03 A2987 RMK A01 T00161030  RH  072%=      5-min Rain = 0
KTIS 190245Z 35029G38KT 01/M03 A2987 RMK A01 T00141026  RH  075%=      5-min Rain = 0
KTIS 190250Z 34029G36KT 01/M02 A2988 RMK A01 T00111022  RH  079%=      5-min Rain = 0
KTIS 190255Z 34029G39KT 01/M02 A2989 RMK A01 T00111020  RH  080%=      5-min Rain = 0
KTIS 190300Z 34028G35KT 01/M02 A2989 RMK A01 T00101019  RH  082%=      5-min Rain = 0
KTIS 190305Z 34028G34KT 01/M02 A299 RMK A01 T00091017  RH  083%=      5-min Rain = 0
KTIS 190310Z 34028G34KT 01/M02 A299 RMK A01 T00111018  RH  082%=      5-min Rain = 0
KTIS 190315Z 34031G40KT 01/M02 A2991 RMK A01 T00111020  RH  081%=      5-min Rain = 0
KTIS 190320Z 34030G43KT 01/M02 A2991 RMK A01 T00101022  RH  080%=      5-min Rain = 0
KTIS 190325Z 34032G41KT 01/M03 A2992 RMK A01 T00091026  RH  078%=      5-min Rain = 0
KTIS 190330Z 35035G45KT 01/M03 A2992 RMK A01 T00091032  RH  074%=      5-min Rain = 0
KTIS 190335Z 34033G42KT 01/M03 A2993 RMK A01 T00091033  RH  074%=      5-min Rain = 0
KTIS 190340Z 34030G40KT 01/M03 A2994 RMK A01 T00081032  RH  075%=      5-min Rain = 0
KTIS 190345Z 35030G39KT 01/M03 A2995 RMK A01 T00081033  RH  075%=      5-min Rain = 0
KTIS 190350Z 34031G38KT 01/M03 A2995 RMK A01 T00071032  RH  075%=      5-min Rain = 0
KTIS 190355Z 35027G35KT 01/M03 A2995 RMK A01 T00071031  RH  076%=      5-min Rain = 0
KTIS 190400Z 34029G34KT 01/M03 A2995 RMK A01 T00071031  RH  076%=      5-min Rain = 0
KTIS 190405Z 34032G40KT 01/M03 A2996 RMK A01 T00071032  RH  076%=      5-min Rain = 0
KTIS 190410Z 35031G39KT 01/M03 A2996 RMK A01 T00071032  RH  076%=      5-min Rain = 0
KTIS 190415Z 35028G39KT 01/M03 A2997 RMK A01 T00071032  RH  076%=      5-min Rain = 0
KTIS 190420Z 35032G41KT 01/M03 A2997 RMK A01 T00061032  RH  076%=      5-min Rain = 0
KTIS 190425Z 34030G39KT 01/M03 A2997 RMK A01 T00051030  RH  078%=      5-min Rain = 0
KTIS 190430Z 35030G41KT 00/M03 A2998 RMK A01 T00041032  RH  077%=      5-min Rain = 0
KTIS 190435Z 34032G43KT 00/M03 A2998 RMK A01 T00031033  RH  077%=      5-min Rain = 0
KTIS 190440Z 34031G38KT 00/M03 A2999 RMK A01 T00021033  RH  078%=      5-min Rain = 0
KTIS 190445Z 34029G37KT 00/03 A2999 RMK A01 T00000-32  RH  079%=      5-min Rain = 0
KTIS 190450Z 34030G37KT M00/M03 A2999 RMK A01 T10021030  RH  081%=      5-min Rain = 0
KTIS 190455Z 35029G38KT M00/M03 A30 RMK A01 T10041029  RH  084%=      5-min Rain = 0
KTIS 190500Z 35029G36KT M01/M03 A30 RMK A01 T10051029  RH  084%=      5-min Rain = 0
KTIS 190505Z 35028G35KT M01/M03 A30 RMK A01 T10061029  RH  085%=      5-min Rain = 0
KTIS 190510Z 35025G31KT M01/M03 A3001 RMK A01 T10061028  RH  086%=      5-min Rain = 0
KTIS 190515Z 34024G31KT M01/M03 A3001 RMK A01 T10061027  RH  086%=      5-min Rain = 0
KTIS 190520Z 34025G32KT M00/M03 A3001 RMK A01 T10041027  RH  085%=      5-min Rain = 0
KTIS 190525Z 34025G31KT M00/M03 A3002 RMK A01 T10041027  RH  085%=      5-min Rain = 0
KTIS 190530Z 34024G29KT M00/M03 A3002 RMK A01 T10041027  RH  085%=      5-min Rain = 0
KTIS 190535Z 34022G28KT M00/M03 A3002 RMK A01 T10041026  RH  086%=      5-min Rain = 0
KTIS 190540Z 34022G28KT M01/M03 A3003 RMK A01 T10051026  RH  086%=      5-min Rain = 0
KTIS 190545Z 34023G32KT M01/M03 A3003 RMK A01 T10051026  RH  086%=      5-min Rain = 0
KTIS 190550Z 34024G29KT M01/M03 A3004 RMK A01 T10051027  RH  086%=      5-min Rain = 0
KTIS 190555Z 34023G29KT M01/M03 A3004 RMK A01 T10051026  RH  087%=      5-min Rain = 0

Page generated in 0.0156 seconds.